sensor_id;sensor_type;location;lat;lon;timestamp;temperature;humidity
8565;DHT22;4320;51.498;6.556;2024-03-25T00:02:08;7.00;99.90
8565;DHT22;4320;51.498;6.556;2024-03-25T00:04:34;6.90;99.90
8565;DHT22;4320;51.498;6.556;2024-03-25T00:07:01;6.90;99.90
8565;DHT22;4320;51.498;6.556;2024-03-25T00:09:27;7.00;99.90
8565;DHT22;4320;51.498;6.556;2024-03-25T00:11:53;7.00;99.90
8565;DHT22;4320;51.498;6.556;2024-03-25T00:14:22;7.00;99.90
8565;DHT22;4320;51.498;6.556;2024-03-25T00:16:47;7.00;99.90
8565;DHT22;4320;51.498;6.556;2024-03-25T00:19:16;7.00;99.90
8565;DHT22;4320;51.498;6.556;2024-03-25T00:21:41;7.00;99.90
8565;DHT22;4320;51.498;6.556;2024-03-25T00:24:07;6.80;99.90
8565;DHT22;4320;51.498;6.556;2024-03-25T00:26:33;6.80;99.90
8565;DHT22;4320;51.498;6.556;2024-03-25T00:28:59;6.80;99.90
8565;DHT22;4320;51.498;6.556;2024-03-25T00:31:24;6.80;99.90
8565;DHT22;4320;51.498;6.556;2024-03-25T00:33:50;6.70;99.90
8565;DHT22;4320;51.498;6.556;2024-03-25T00:36:16;6.80;99.90
8565;DHT22;4320;51.498;6.556;2024-03-25T00:38:42;6.80;99.90
8565;DHT22;4320;51.498;6.556;2024-03-25T00:41:08;6.80;99.90
8565;DHT22;4320;51.498;6.556;2024-03-25T00:43:34;6.70;99.90
8565;DHT22;4320;51.498;6.556;2024-03-25T00:46:00;6.80;99.90
8565;DHT22;4320;51.498;6.556;2024-03-25T00:48:25;6.90;99.90
8565;DHT22;4320;51.498;6.556;2024-03-25T00:50:51;6.80;99.90
8565;DHT22;4320;51.498;6.556;2024-03-25T00:53:16;6.80;99.90
8565;DHT22;4320;51.498;6.556;2024-03-25T00:55:43;6.80;99.90
8565;DHT22;4320;51.498;6.556;2024-03-25T00:58:09;6.70;99.90
8565;DHT22;4320;51.498;6.556;2024-03-25T01:00:35;6.70;99.90
8565;DHT22;4320;51.498;6.556;2024-03-25T01:03:01;6.80;99.90
8565;DHT22;4320;51.498;6.556;2024-03-25T01:05:26;6.70;99.90
8565;DHT22;4320;51.498;6.556;2024-03-25T01:07:52;6.80;99.90
8565;DHT22;4320;51.498;6.556;2024-03-25T01:10:18;6.70;99.90
8565;DHT22;4320;51.498;6.556;2024-03-25T01:12:43;6.60;99.90
8565;DHT22;4320;51.498;6.556;2024-03-25T01:15:09;6.60;99.90
8565;DHT22;4320;51.498;6.556;2024-03-25T01:17:37;6.60;99.90
8565;DHT22;4320;51.498;6.556;2024-03-25T01:20:03;6.40;99.90
8565;DHT22;4320;51.498;6.556;2024-03-25T01:22:31;6.60;99.90
8565;DHT22;4320;51.498;6.556;2024-03-25T01:24:57;6.60;99.90
8565;DHT22;4320;51.498;6.556;2024-03-25T01:27:23;6.70;99.90
8565;DHT22;4320;51.498;6.556;2024-03-25T01:29:49;6.60;99.90
8565;DHT22;4320;51.498;6.556;2024-03-25T01:32:14;6.70;99.90
8565;DHT22;4320;51.498;6.556;2024-03-25T01:34:40;6.60;99.90
8565;DHT22;4320;51.498;6.556;2024-03-25T01:37:05;6.50;99.90
8565;DHT22;4320;51.498;6.556;2024-03-25T01:39:31;6.50;99.90
8565;DHT22;4320;51.498;6.556;2024-03-25T01:41:57;6.50;99.90
8565;DHT22;4320;51.498;6.556;2024-03-25T01:44:22;6.50;99.90
8565;DHT22;4320;51.498;6.556;2024-03-25T01:46:48;6.50;99.90
8565;DHT22;4320;51.498;6.556;2024-03-25T01:49:14;6.50;99.90
8565;DHT22;4320;51.498;6.556;2024-03-25T01:51:41;6.50;99.90
8565;DHT22;4320;51.498;6.556;2024-03-25T01:54:07;6.50;99.90
8565;DHT22;4320;51.498;6.556;2024-03-25T01:56:34;6.50;99.90
8565;DHT22;4320;51.498;6.556;2024-03-25T01:59:01;6.50;99.90
8565;DHT22;4320;51.498;6.556;2024-03-25T02:01:27;6.50;99.90
8565;DHT22;4320;51.498;6.556;2024-03-25T02:03:54;6.50;99.90
8565;DHT22;4320;51.498;6.556;2024-03-25T02:06:21;6.50;99.90
8565;DHT22;4320;51.498;6.556;2024-03-25T02:08:48;6.40;99.90
8565;DHT22;4320;51.498;6.556;2024-03-25T02:11:14;6.40;99.90
8565;DHT22;4320;51.498;6.556;2024-03-25T02:13:40;6.40;99.90
8565;DHT22;4320;51.498;6.556;2024-03-25T02:16:06;6.30;99.90
8565;DHT22;4320;51.498;6.556;2024-03-25T02:18:32;6.30;99.90
8565;DHT22;4320;51.498;6.556;2024-03-25T02:20:59;6.30;99.90
8565;DHT22;4320;51.498;6.556;2024-03-25T02:23:25;6.20;99.90
8565;DHT22;4320;51.498;6.556;2024-03-25T02:25:51;6.20;99.90
8565;DHT22;4320;51.498;6.556;2024-03-25T02:28:17;6.20;99.90
8565;DHT22;4320;51.498;6.556;2024-03-25T02:30:43;6.20;99.90
8565;DHT22;4320;51.498;6.556;2024-03-25T02:33:08;6.30;99.90
8565;DHT22;4320;51.498;6.556;2024-03-25T02:35:34;6.30;99.90
8565;DHT22;4320;51.498;6.556;2024-03-25T02:38:00;6.20;99.90
8565;DHT22;4320;51.498;6.556;2024-03-25T02:40:27;6.10;99.90
8565;DHT22;4320;51.498;6.556;2024-03-25T02:42:52;6.10;99.90
8565;DHT22;4320;51.498;6.556;2024-03-25T02:45:18;6.10;99.90
8565;DHT22;4320;51.498;6.556;2024-03-25T02:47:45;6.10;99.90
8565;DHT22;4320;51.498;6.556;2024-03-25T02:50:10;6.20;99.90
8565;DHT22;4320;51.498;6.556;2024-03-25T02:52:36;6.20;99.90
8565;DHT22;4320;51.498;6.556;2024-03-25T02:55:02;6.10;99.90
8565;DHT22;4320;51.498;6.556;2024-03-25T02:57:27;6.10;99.90
8565;DHT22;4320;51.498;6.556;2024-03-25T02:59:53;6.10;99.90
8565;DHT22;4320;51.498;6.556;2024-03-25T03:02:18;6.20;99.90
8565;DHT22;4320;51.498;6.556;2024-03-25T03:04:44;6.20;99.90
8565;DHT22;4320;51.498;6.556;2024-03-25T03:07:10;6.30;99.90
8565;DHT22;4320;51.498;6.556;2024-03-25T03:09:35;6.40;99.90
8565;DHT22;4320;51.498;6.556;2024-03-25T03:12:01;6.30;99.90
8565;DHT22;4320;51.498;6.556;2024-03-25T03:14:27;6.40;99.90
8565;DHT22;4320;51.498;6.556;2024-03-25T03:16:52;6.50;99.90
8565;DHT22;4320;51.498;6.556;2024-03-25T03:19:21;6.30;99.90
8565;DHT22;4320;51.498;6.556;2024-03-25T03:21:46;6.20;99.90
8565;DHT22;4320;51.498;6.556;2024-03-25T03:24:12;6.40;99.90
8565;DHT22;4320;51.498;6.556;2024-03-25T03:26:38;6.50;99.90
8565;DHT22;4320;51.498;6.556;2024-03-25T03:29:03;6.50;99.90
8565;DHT22;4320;51.498;6.556;2024-03-25T03:31:29;6.60;99.90
8565;DHT22;4320;51.498;6.556;2024-03-25T03:33:55;6.60;99.90
8565;DHT22;4320;51.498;6.556;2024-03-25T03:36:22;6.60;99.90
8565;DHT22;4320;51.498;6.556;2024-03-25T03:38:50;6.60;99.90
8565;DHT22;4320;51.498;6.556;2024-03-25T03:41:16;6.70;99.90
8565;DHT22;4320;51.498;6.556;2024-03-25T03:43:42;6.70;99.90
8565;DHT22;4320;51.498;6.556;2024-03-25T03:46:07;6.70;99.90
8565;DHT22;4320;51.498;6.556;2024-03-25T03:48:33;6.80;99.90
8565;DHT22;4320;51.498;6.556;2024-03-25T03:50:59;6.60;99.90
8565;DHT22;4320;51.498;6.556;2024-03-25T03:53:25;6.70;99.90
8565;DHT22;4320;51.498;6.556;2024-03-25T03:55:58;6.60;99.90
8565;DHT22;4320;51.498;6.556;2024-03-25T03:58:25;6.70;99.90
8565;DHT22;4320;51.498;6.556;2024-03-25T04:00:51;6.70;99.90
8565;DHT22;4320;51.498;6.556;2024-03-25T04:03:17;6.70;99.90
8565;DHT22;4320;51.498;6.556;2024-03-25T04:05:43;6.70;99.90
8565;DHT22;4320;51.498;6.556;2024-03-25T04:08:09;6.80;99.90
8565;DHT22;4320;51.498;6.556;2024-03-25T04:10:35;6.80;99.90
8565;DHT22;4320;51.498;6.556;2024-03-25T04:13:02;6.90;99.90
8565;DHT22;4320;51.498;6.556;2024-03-25T04:15:27;6.70;99.90
8565;DHT22;4320;51.498;6.556;2024-03-25T04:17:53;6.70;99.90
8565;DHT22;4320;51.498;6.556;2024-03-25T04:20:18;6.70;99.90
8565;DHT22;4320;51.498;6.556;2024-03-25T04:22:45;6.60;99.90
8565;DHT22;4320;51.498;6.556;2024-03-25T04:25:12;6.50;99.90
8565;DHT22;4320;51.498;6.556;2024-03-25T04:27:41;6.40;99.90
8565;DHT22;4320;51.498;6.556;2024-03-25T04:30:07;6.40;99.90
8565;DHT22;4320;51.498;6.556;2024-03-25T04:32:34;6.40;99.90
8565;DHT22;4320;51.498;6.556;2024-03-25T04:35:00;6.40;99.90
8565;DHT22;4320;51.498;6.556;2024-03-25T04:37:26;6.40;99.90
8565;DHT22;4320;51.498;6.556;2024-03-25T04:39:53;6.40;99.90
8565;DHT22;4320;51.498;6.556;2024-03-25T04:42:19;6.50;99.90
8565;DHT22;4320;51.498;6.556;2024-03-25T04:44:44;6.50;99.90
8565;DHT22;4320;51.498;6.556;2024-03-25T04:47:10;6.40;99.90
8565;DHT22;4320;51.498;6.556;2024-03-25T04:49:36;6.50;99.90
8565;DHT22;4320;51.498;6.556;2024-03-25T04:52:03;6.40;99.90
8565;DHT22;4320;51.498;6.556;2024-03-25T04:54:29;6.50;99.90
8565;DHT22;4320;51.498;6.556;2024-03-25T04:56:55;6.50;99.90
8565;DHT22;4320;51.498;6.556;2024-03-25T04:59:21;6.50;99.90
8565;DHT22;4320;51.498;6.556;2024-03-25T05:01:46;6.50;99.90
8565;DHT22;4320;51.498;6.556;2024-03-25T05:04:12;6.50;99.90
8565;DHT22;4320;51.498;6.556;2024-03-25T05:06:38;6.60;99.90
8565;DHT22;4320;51.498;6.556;2024-03-25T05:09:03;6.70;99.90
8565;DHT22;4320;51.498;6.556;2024-03-25T05:11:31;6.70;99.90
8565;DHT22;4320;51.498;6.556;2024-03-25T05:13:57;6.70;99.90
8565;DHT22;4320;51.498;6.556;2024-03-25T05:16:22;6.70;99.90
8565;DHT22;4320;51.498;6.556;2024-03-25T05:18:48;6.80;99.90
8565;DHT22;4320;51.498;6.556;2024-03-25T05:21:13;6.80;99.90
8565;DHT22;4320;51.498;6.556;2024-03-25T05:23:39;6.90;99.90
8565;DHT22;4320;51.498;6.556;2024-03-25T05:26:05;6.90;99.90
8565;DHT22;4320;51.498;6.556;2024-03-25T05:28:30;6.90;99.90
8565;DHT22;4320;51.498;6.556;2024-03-25T05:30:56;6.90;99.90
8565;DHT22;4320;51.498;6.556;2024-03-25T05:33:22;6.80;99.90
8565;DHT22;4320;51.498;6.556;2024-03-25T05:35:47;6.80;99.90
8565;DHT22;4320;51.498;6.556;2024-03-25T05:38:13;6.90;99.90
8565;DHT22;4320;51.498;6.556;2024-03-25T05:40:38;7.00;99.90
8565;DHT22;4320;51.498;6.556;2024-03-25T05:43:04;7.00;99.90
8565;DHT22;4320;51.498;6.556;2024-03-25T05:45:30;7.10;99.90
8565;DHT22;4320;51.498;6.556;2024-03-25T05:47:55;7.10;99.90
8565;DHT22;4320;51.498;6.556;2024-03-25T05:50:21;7.10;99.90
8565;DHT22;4320;51.498;6.556;2024-03-25T05:52:46;7.10;99.90
8565;DHT22;4320;51.498;6.556;2024-03-25T05:55:12;7.30;99.90
8565;DHT22;4320;51.498;6.556;2024-03-25T05:57:38;7.30;99.90
8565;DHT22;4320;51.498;6.556;2024-03-25T06:00:04;7.40;99.90
8565;DHT22;4320;51.498;6.556;2024-03-25T06:02:29;7.40;99.90
8565;DHT22;4320;51.498;6.556;2024-03-25T06:04:58;7.50;99.90
8565;DHT22;4320;51.498;6.556;2024-03-25T06:07:23;7.50;99.90
8565;DHT22;4320;51.498;6.556;2024-03-25T06:09:49;7.50;99.90
8565;DHT22;4320;51.498;6.556;2024-03-25T06:12:15;7.50;99.90
8565;DHT22;4320;51.498;6.556;2024-03-25T06:14:40;7.50;99.90
8565;DHT22;4320;51.498;6.556;2024-03-25T06:17:06;7.40;99.90
8565;DHT22;4320;51.498;6.556;2024-03-25T06:19:31;7.40;99.90
8565;DHT22;4320;51.498;6.556;2024-03-25T06:21:57;7.40;99.90
8565;DHT22;4320;51.498;6.556;2024-03-25T06:24:23;7.50;99.90
8565;DHT22;4320;51.498;6.556;2024-03-25T06:26:49;7.50;99.90
8565;DHT22;4320;51.498;6.556;2024-03-25T06:29:14;7.50;99.90
8565;DHT22;4320;51.498;6.556;2024-03-25T06:31:40;7.30;99.90
8565;DHT22;4320;51.498;6.556;2024-03-25T06:34:41;7.50;99.90
8565;DHT22;4320;51.498;6.556;2024-03-25T06:37:07;7.30;99.90
8565;DHT22;4320;51.498;6.556;2024-03-25T06:39:34;7.50;99.90
8565;DHT22;4320;51.498;6.556;2024-03-25T06:41:59;7.70;99.90
8565;DHT22;4320;51.498;6.556;2024-03-25T06:44:25;7.90;99.90
8565;DHT22;4320;51.498;6.556;2024-03-25T06:46:50;8.10;99.90
8565;DHT22;4320;51.498;6.556;2024-03-25T06:49:16;8.10;99.90
8565;DHT22;4320;51.498;6.556;2024-03-25T06:51:41;8.20;99.90
8565;DHT22;4320;51.498;6.556;2024-03-25T06:54:07;8.30;99.90
8565;DHT22;4320;51.498;6.556;2024-03-25T06:56:33;8.10;98.30
8565;DHT22;4320;51.498;6.556;2024-03-25T06:58:58;8.00;97.80
8565;DHT22;4320;51.498;6.556;2024-03-25T07:01:24;8.20;98.40
8565;DHT22;4320;51.498;6.556;2024-03-25T07:03:49;8.40;96.60
8565;DHT22;4320;51.498;6.556;2024-03-25T07:06:16;8.60;94.50
8565;DHT22;4320;51.498;6.556;2024-03-25T07:08:42;8.70;88.90
8565;DHT22;4320;51.498;6.556;2024-03-25T07:11:08;8.70;83.90
8565;DHT22;4320;51.498;6.556;2024-03-25T07:13:34;8.80;77.50
8565;DHT22;4320;51.498;6.556;2024-03-25T07:15:59;8.90;75.20
8565;DHT22;4320;51.498;6.556;2024-03-25T07:18:25;9.20;74.80
8565;DHT22;4320;51.498;6.556;2024-03-25T07:20:50;9.60;66.10
8565;DHT22;4320;51.498;6.556;2024-03-25T07:23:16;9.60;55.20
8565;DHT22;4320;51.498;6.556;2024-03-25T07:25:41;9.40;46.50
8565;DHT22;4320;51.498;6.556;2024-03-25T07:28:07;9.30;45.50
8565;DHT22;4320;51.498;6.556;2024-03-25T07:30:33;9.20;49.30
8565;DHT22;4320;51.498;6.556;2024-03-25T07:32:59;9.30;48.00
8565;DHT22;4320;51.498;6.556;2024-03-25T07:35:25;9.40;50.70
8565;DHT22;4320;51.498;6.556;2024-03-25T07:37:51;9.40;42.30
8565;DHT22;4320;51.498;6.556;2024-03-25T07:40:21;9.90;44.20
8565;DHT22;4320;51.498;6.556;2024-03-25T07:42:47;10.10;40.30
8565;DHT22;4320;51.498;6.556;2024-03-25T07:45:12;10.50;28.80
8565;DHT22;4320;51.498;6.556;2024-03-25T07:47:38;10.90;23.80
8565;DHT22;4320;51.498;6.556;2024-03-25T07:50:04;11.20;18.00
8565;DHT22;4320;51.498;6.556;2024-03-25T07:52:31;11.80;12.50
8565;DHT22;4320;51.498;6.556;2024-03-25T07:54:57;12.30;1.00
8565;DHT22;4320;51.498;6.556;2024-03-25T07:57:23;13.00;1.00
8565;DHT22;4320;51.498;6.556;2024-03-25T07:59:48;14.10;1.00
8565;DHT22;4320;51.498;6.556;2024-03-25T08:02:15;15.00;1.00
8565;DHT22;4320;51.498;6.556;2024-03-25T08:04:41;16.20;1.00
8565;DHT22;4320;51.498;6.556;2024-03-25T08:07:07;16.80;1.00
8565;DHT22;4320;51.498;6.556;2024-03-25T08:09:32;16.60;1.00
8565;DHT22;4320;51.498;6.556;2024-03-25T08:11:58;17.50;1.00
8565;DHT22;4320;51.498;6.556;2024-03-25T08:14:24;18.30;1.00
8565;DHT22;4320;51.498;6.556;2024-03-25T08:16:50;18.40;1.00
8565;DHT22;4320;51.498;6.556;2024-03-25T08:19:15;19.30;1.00
8565;DHT22;4320;51.498;6.556;2024-03-25T08:21:41;20.10;1.00
8565;DHT22;4320;51.498;6.556;2024-03-25T08:24:07;20.10;1.00
8565;DHT22;4320;51.498;6.556;2024-03-25T08:26:33;20.00;1.00
8565;DHT22;4320;51.498;6.556;2024-03-25T08:28:58;19.40;1.00
8565;DHT22;4320;51.498;6.556;2024-03-25T08:31:24;18.60;1.00
8565;DHT22;4320;51.498;6.556;2024-03-25T08:33:50;18.20;1.00
8565;DHT22;4320;51.498;6.556;2024-03-25T08:36:16;18.70;1.00
8565;DHT22;4320;51.498;6.556;2024-03-25T08:38:41;18.50;1.00
8565;DHT22;4320;51.498;6.556;2024-03-25T08:41:07;18.80;1.00
8565;DHT22;4320;51.498;6.556;2024-03-25T08:43:33;19.00;1.00
8565;DHT22;4320;51.498;6.556;2024-03-25T08:45:58;19.10;1.00
8565;DHT22;4320;51.498;6.556;2024-03-25T08:48:24;18.30;1.00
8565;DHT22;4320;51.498;6.556;2024-03-25T08:50:49;17.90;1.00
8565;DHT22;4320;51.498;6.556;2024-03-25T08:53:15;16.50;1.00
8565;DHT22;4320;51.498;6.556;2024-03-25T08:55:48;15.60;1.00
8565;DHT22;4320;51.498;6.556;2024-03-25T08:58:14;14.90;1.00
8565;DHT22;4320;51.498;6.556;2024-03-25T09:00:40;14.50;1.00
8565;DHT22;4320;51.498;6.556;2024-03-25T09:03:06;14.60;1.00
8565;DHT22;4320;51.498;6.556;2024-03-25T09:05:31;14.20;1.00
8565;DHT22;4320;51.498;6.556;2024-03-25T09:07:57;14.60;1.00
8565;DHT22;4320;51.498;6.556;2024-03-25T09:10:24;15.00;1.00
8565;DHT22;4320;51.498;6.556;2024-03-25T09:13:08;15.10;1.00
8565;DHT22;4320;51.498;6.556;2024-03-25T09:15:34;15.40;1.00
8565;DHT22;4320;51.498;6.556;2024-03-25T09:18:00;14.60;1.00
8565;DHT22;4320;51.498;6.556;2024-03-25T09:20:26;14.50;1.00
8565;DHT22;4320;51.498;6.556;2024-03-25T09:22:52;14.20;1.00
8565;DHT22;4320;51.498;6.556;2024-03-25T09:25:18;14.50;1.00
8565;DHT22;4320;51.498;6.556;2024-03-25T09:27:50;14.60;1.00
8565;DHT22;4320;51.498;6.556;2024-03-25T09:30:17;15.00;1.00
8565;DHT22;4320;51.498;6.556;2024-03-25T09:32:45;15.20;1.00
8565;DHT22;4320;51.498;6.556;2024-03-25T09:35:11;15.00;1.00
8565;DHT22;4320;51.498;6.556;2024-03-25T09:37:37;14.90;1.00
8565;DHT22;4320;51.498;6.556;2024-03-25T09:40:04;14.50;1.00
8565;DHT22;4320;51.498;6.556;2024-03-25T09:42:52;14.00;1.00
8565;DHT22;4320;51.498;6.556;2024-03-25T09:45:24;14.00;1.00
8565;DHT22;4320;51.498;6.556;2024-03-25T09:47:51;13.80;1.00
8565;DHT22;4320;51.498;6.556;2024-03-25T09:50:17;13.90;1.00
8565;DHT22;4320;51.498;6.556;2024-03-25T09:52:51;14.70;1.00
8565;DHT22;4320;51.498;6.556;2024-03-25T09:55:17;15.30;1.00
8565;DHT22;4320;51.498;6.556;2024-03-25T09:57:43;14.90;1.00
8565;DHT22;4320;51.498;6.556;2024-03-25T10:00:10;15.10;1.00
8565;DHT22;4320;51.498;6.556;2024-03-25T10:02:40;15.30;1.00
8565;DHT22;4320;51.498;6.556;2024-03-25T10:05:06;14.50;1.00
8565;DHT22;4320;51.498;6.556;2024-03-25T10:07:32;14.20;1.00
8565;DHT22;4320;51.498;6.556;2024-03-25T10:09:58;14.60;1.00
8565;DHT22;4320;51.498;6.556;2024-03-25T10:12:27;15.00;1.00
8565;DHT22;4320;51.498;6.556;2024-03-25T10:14:53;15.40;1.00
8565;DHT22;4320;51.498;6.556;2024-03-25T10:17:19;15.50;1.00
8565;DHT22;4320;51.498;6.556;2024-03-25T10:19:44;15.00;1.00
8565;DHT22;4320;51.498;6.556;2024-03-25T10:22:10;15.30;1.00
8565;DHT22;4320;51.498;6.556;2024-03-25T10:24:45;16.00;1.00
8565;DHT22;4320;51.498;6.556;2024-03-25T10:27:23;16.60;1.00
8565;DHT22;4320;51.498;6.556;2024-03-25T10:29:53;17.20;1.00
8565;DHT22;4320;51.498;6.556;2024-03-25T10:32:20;17.60;1.00
8565;DHT22;4320;51.498;6.556;2024-03-25T10:34:46;17.90;1.00
8565;DHT22;4320;51.498;6.556;2024-03-25T10:37:12;17.50;1.00
8565;DHT22;4320;51.498;6.556;2024-03-25T10:39:50;16.80;1.00
8565;DHT22;4320;51.498;6.556;2024-03-25T10:42:20;16.10;1.00
8565;DHT22;4320;51.498;6.556;2024-03-25T10:44:47;15.50;1.00
8565;DHT22;4320;51.498;6.556;2024-03-25T10:47:20;16.00;1.00
8565;DHT22;4320;51.498;6.556;2024-03-25T10:52:15;15.00;1.00
8565;DHT22;4320;51.498;6.556;2024-03-25T10:54:42;16.00;1.00
8565;DHT22;4320;51.498;6.556;2024-03-25T10:57:09;15.50;1.00
8565;DHT22;4320;51.498;6.556;2024-03-25T10:59:37;15.60;1.00
8565;DHT22;4320;51.498;6.556;2024-03-25T11:02:07;15.30;1.00
8565;DHT22;4320;51.498;6.556;2024-03-25T11:04:33;15.20;1.00
8565;DHT22;4320;51.498;6.556;2024-03-25T11:07:13;15.10;1.00
8565;DHT22;4320;51.498;6.556;2024-03-25T11:09:39;15.10;1.00
8565;DHT22;4320;51.498;6.556;2024-03-25T11:12:06;15.10;1.00
8565;DHT22;4320;51.498;6.556;2024-03-25T11:14:31;15.00;1.00
8565;DHT22;4320;51.498;6.556;2024-03-25T11:16:58;15.10;1.00
8565;DHT22;4320;51.498;6.556;2024-03-25T11:19:29;15.10;1.00
8565;DHT22;4320;51.498;6.556;2024-03-25T11:22:07;15.10;1.00
8565;DHT22;4320;51.498;6.556;2024-03-25T11:24:34;15.70;1.00
8565;DHT22;4320;51.498;6.556;2024-03-25T11:27:02;15.80;1.00
8565;DHT22;4320;51.498;6.556;2024-03-25T11:29:28;15.90;1.00
8565;DHT22;4320;51.498;6.556;2024-03-25T11:31:53;16.30;1.00
8565;DHT22;4320;51.498;6.556;2024-03-25T11:34:20;16.20;1.00
8565;DHT22;4320;51.498;6.556;2024-03-25T11:36:46;15.60;1.00
8565;DHT22;4320;51.498;6.556;2024-03-25T11:39:14;15.60;1.00
8565;DHT22;4320;51.498;6.556;2024-03-25T11:41:43;14.60;1.00
8565;DHT22;4320;51.498;6.556;2024-03-25T11:44:10;14.70;1.00
8565;DHT22;4320;51.498;6.556;2024-03-25T11:46:36;14.90;1.00
8565;DHT22;4320;51.498;6.556;2024-03-25T11:49:06;15.20;1.00
8565;DHT22;4320;51.498;6.556;2024-03-25T11:51:33;15.90;1.00
8565;DHT22;4320;51.498;6.556;2024-03-25T11:53:59;16.40;1.00
8565;DHT22;4320;51.498;6.556;2024-03-25T11:56:26;16.10;1.00
8565;DHT22;4320;51.498;6.556;2024-03-25T11:58:51;15.30;1.00
8565;DHT22;4320;51.498;6.556;2024-03-25T12:01:17;15.10;1.00
8565;DHT22;4320;51.498;6.556;2024-03-25T12:03:43;15.30;1.00
8565;DHT22;4320;51.498;6.556;2024-03-25T12:06:08;15.00;1.00
8565;DHT22;4320;51.498;6.556;2024-03-25T12:08:34;14.60;1.00
8565;DHT22;4320;51.498;6.556;2024-03-25T12:11:10;15.30;1.00
8565;DHT22;4320;51.498;6.556;2024-03-25T12:13:44;16.30;1.00
8565;DHT22;4320;51.498;6.556;2024-03-25T12:16:10;16.60;1.00
8565;DHT22;4320;51.498;6.556;2024-03-25T12:18:36;16.10;1.00
8565;DHT22;4320;51.498;6.556;2024-03-25T12:21:04;15.70;1.00
8565;DHT22;4320;51.498;6.556;2024-03-25T12:23:33;15.00;1.00
8565;DHT22;4320;51.498;6.556;2024-03-25T12:26:00;15.80;1.00
8565;DHT22;4320;51.498;6.556;2024-03-25T12:28:26;16.90;1.00
8565;DHT22;4320;51.498;6.556;2024-03-25T12:30:55;17.60;1.00
8565;DHT22;4320;51.498;6.556;2024-03-25T12:33:23;17.70;1.00
8565;DHT22;4320;51.498;6.556;2024-03-25T12:35:50;18.60;1.00
8565;DHT22;4320;51.498;6.556;2024-03-25T12:38:26;18.80;1.00
8565;DHT22;4320;51.498;6.556;2024-03-25T12:40:54;17.40;1.00
8565;DHT22;4320;51.498;6.556;2024-03-25T12:43:19;16.40;1.00
8565;DHT22;4320;51.498;6.556;2024-03-25T12:45:45;16.70;1.00
8565;DHT22;4320;51.498;6.556;2024-03-25T12:48:11;17.10;1.00
8565;DHT22;4320;51.498;6.556;2024-03-25T12:50:37;17.20;1.00
8565;DHT22;4320;51.498;6.556;2024-03-25T12:53:03;17.10;1.00
8565;DHT22;4320;51.498;6.556;2024-03-25T12:55:32;16.80;1.00
8565;DHT22;4320;51.498;6.556;2024-03-25T12:57:57;16.00;1.00
8565;DHT22;4320;51.498;6.556;2024-03-25T13:00:23;16.40;1.00
8565;DHT22;4320;51.498;6.556;2024-03-25T13:02:49;16.60;1.00
8565;DHT22;4320;51.498;6.556;2024-03-25T13:05:16;16.90;1.00
8565;DHT22;4320;51.498;6.556;2024-03-25T13:07:41;17.70;1.00
8565;DHT22;4320;51.498;6.556;2024-03-25T13:10:07;18.10;1.00
8565;DHT22;4320;51.498;6.556;2024-03-25T13:12:33;17.90;1.00
8565;DHT22;4320;51.498;6.556;2024-03-25T13:14:58;17.60;1.00
8565;DHT22;4320;51.498;6.556;2024-03-25T13:17:25;17.70;1.00
8565;DHT22;4320;51.498;6.556;2024-03-25T13:19:50;16.00;1.00
8565;DHT22;4320;51.498;6.556;2024-03-25T13:22:16;15.80;1.00
8565;DHT22;4320;51.498;6.556;2024-03-25T13:24:42;15.80;1.00
8565;DHT22;4320;51.498;6.556;2024-03-25T13:27:07;16.20;1.00
8565;DHT22;4320;51.498;6.556;2024-03-25T13:29:33;16.60;1.00
8565;DHT22;4320;51.498;6.556;2024-03-25T13:32:01;16.70;1.00
8565;DHT22;4320;51.498;6.556;2024-03-25T13:34:27;16.40;1.00
8565;DHT22;4320;51.498;6.556;2024-03-25T13:36:53;15.60;1.00
8565;DHT22;4320;51.498;6.556;2024-03-25T13:39:19;15.50;1.00
8565;DHT22;4320;51.498;6.556;2024-03-25T13:41:44;15.50;1.00
8565;DHT22;4320;51.498;6.556;2024-03-25T13:44:11;15.50;1.00
8565;DHT22;4320;51.498;6.556;2024-03-25T13:46:36;14.90;1.00
8565;DHT22;4320;51.498;6.556;2024-03-25T13:49:02;14.50;1.00
8565;DHT22;4320;51.498;6.556;2024-03-25T13:51:28;14.10;1.00
8565;DHT22;4320;51.498;6.556;2024-03-25T13:53:53;13.90;1.00
8565;DHT22;4320;51.498;6.556;2024-03-25T13:56:19;13.70;1.00
8565;DHT22;4320;51.498;6.556;2024-03-25T13:58:45;13.90;1.00
8565;DHT22;4320;51.498;6.556;2024-03-25T14:01:10;14.50;1.00
8565;DHT22;4320;51.498;6.556;2024-03-25T14:03:36;14.70;1.00
8565;DHT22;4320;51.498;6.556;2024-03-25T14:06:02;15.10;1.00
8565;DHT22;4320;51.498;6.556;2024-03-25T14:08:28;14.90;1.00
8565;DHT22;4320;51.498;6.556;2024-03-25T14:11:01;15.00;1.00
8565;DHT22;4320;51.498;6.556;2024-03-25T14:13:27;14.80;1.00
8565;DHT22;4320;51.498;6.556;2024-03-25T14:15:53;15.20;1.00
8565;DHT22;4320;51.498;6.556;2024-03-25T14:18:18;15.80;1.00
8565;DHT22;4320;51.498;6.556;2024-03-25T14:20:44;15.40;1.00
8565;DHT22;4320;51.498;6.556;2024-03-25T14:23:10;14.50;1.00
8565;DHT22;4320;51.498;6.556;2024-03-25T14:25:37;13.90;1.00
8565;DHT22;4320;51.498;6.556;2024-03-25T14:28:03;13.90;1.00
8565;DHT22;4320;51.498;6.556;2024-03-25T14:30:28;14.20;1.00
8565;DHT22;4320;51.498;6.556;2024-03-25T14:32:54;14.00;1.00
8565;DHT22;4320;51.498;6.556;2024-03-25T14:35:21;14.10;1.00
8565;DHT22;4320;51.498;6.556;2024-03-25T14:37:47;14.50;1.00
8565;DHT22;4320;51.498;6.556;2024-03-25T14:40:12;14.20;1.00
8565;DHT22;4320;51.498;6.556;2024-03-25T14:42:38;13.90;1.00
8565;DHT22;4320;51.498;6.556;2024-03-25T14:45:04;14.00;1.00
8565;DHT22;4320;51.498;6.556;2024-03-25T14:47:31;13.80;1.00
8565;DHT22;4320;51.498;6.556;2024-03-25T14:49:56;13.80;1.00
8565;DHT22;4320;51.498;6.556;2024-03-25T14:52:23;13.80;1.00
8565;DHT22;4320;51.498;6.556;2024-03-25T14:54:48;13.90;1.00
8565;DHT22;4320;51.498;6.556;2024-03-25T14:57:14;14.20;1.00
8565;DHT22;4320;51.498;6.556;2024-03-25T14:59:40;14.10;1.00
8565;DHT22;4320;51.498;6.556;2024-03-25T15:02:05;14.00;1.00
8565;DHT22;4320;51.498;6.556;2024-03-25T15:04:31;13.90;1.00
8565;DHT22;4320;51.498;6.556;2024-03-25T15:06:58;13.50;1.00
8565;DHT22;4320;51.498;6.556;2024-03-25T15:09:24;13.50;1.00
8565;DHT22;4320;51.498;6.556;2024-03-25T15:11:49;13.30;1.00
8565;DHT22;4320;51.498;6.556;2024-03-25T15:14:15;13.30;1.00
8565;DHT22;4320;51.498;6.556;2024-03-25T15:16:41;13.60;1.00
8565;DHT22;4320;51.498;6.556;2024-03-25T15:19:06;13.80;1.00
8565;DHT22;4320;51.498;6.556;2024-03-25T15:21:35;13.80;1.00
8565;DHT22;4320;51.498;6.556;2024-03-25T15:24:02;13.80;1.00
8565;DHT22;4320;51.498;6.556;2024-03-25T15:26:28;13.20;1.00
8565;DHT22;4320;51.498;6.556;2024-03-25T15:28:53;12.90;1.00
8565;DHT22;4320;51.498;6.556;2024-03-25T15:31:19;12.90;1.00
8565;DHT22;4320;51.498;6.556;2024-03-25T15:33:44;13.00;1.00
8565;DHT22;4320;51.498;6.556;2024-03-25T15:36:10;13.20;1.00
8565;DHT22;4320;51.498;6.556;2024-03-25T15:38:36;13.30;1.00
8565;DHT22;4320;51.498;6.556;2024-03-25T15:41:01;13.40;1.00
8565;DHT22;4320;51.498;6.556;2024-03-25T15:43:29;13.30;1.00
8565;DHT22;4320;51.498;6.556;2024-03-25T15:45:56;13.20;1.00
8565;DHT22;4320;51.498;6.556;2024-03-25T15:48:22;13.10;1.00
8565;DHT22;4320;51.498;6.556;2024-03-25T15:50:48;13.00;1.00
8565;DHT22;4320;51.498;6.556;2024-03-25T15:53:14;13.20;1.00
8565;DHT22;4320;51.498;6.556;2024-03-25T15:55:41;13.50;1.00
8565;DHT22;4320;51.498;6.556;2024-03-25T15:58:08;13.40;1.00
8565;DHT22;4320;51.498;6.556;2024-03-25T16:00:33;13.30;1.00
8565;DHT22;4320;51.498;6.556;2024-03-25T16:03:00;13.10;1.00
8565;DHT22;4320;51.498;6.556;2024-03-25T16:05:26;12.90;1.00
8565;DHT22;4320;51.498;6.556;2024-03-25T16:07:52;13.20;1.00
8565;DHT22;4320;51.498;6.556;2024-03-25T16:10:33;12.90;1.00
8565;DHT22;4320;51.498;6.556;2024-03-25T16:13:00;13.00;1.00
8565;DHT22;4320;51.498;6.556;2024-03-25T16:15:30;13.30;1.00